sensor_id;sensor_type;location;lat;lon;timestamp;pressure;altitude;pressure_sealevel;temperature;humidity
24230;BME280;12362;50.004;8.006;2023-08-08T00:00:11;100625.81;;;13.03;100.00
24230;BME280;12362;50.004;8.006;2023-08-08T00:02:39;100628.59;;;13.00;100.00
24230;BME280;12362;50.004;8.006;2023-08-08T00:05:04;100629.53;;;12.99;100.00
24230;BME280;12362;50.004;8.006;2023-08-08T00:07:30;100624.47;;;13.11;100.00
24230;BME280;12362;50.004;8.006;2023-08-08T00:09:56;100627.06;;;13.11;100.00
24230;BME280;12362;50.004;8.006;2023-08-08T00:12:22;100624.88;;;13.04;100.00
24230;BME280;12362;50.004;8.006;2023-08-08T00:14:47;100632.53;;;13.07;100.00
24230;BME280;12362;50.004;8.006;2023-08-08T00:17:13;100629.63;;;13.13;100.00
24230;BME280;12362;50.004;8.006;2023-08-08T00:19:44;100629.69;;;13.11;100.00
24230;BME280;12362;50.004;8.006;2023-08-08T00:22:09;100631.88;;;13.19;100.00
24230;BME280;12362;50.004;8.006;2023-08-08T00:24:35;100625.88;;;13.17;100.00
24230;BME280;12362;50.004;8.006;2023-08-08T00:27:00;100627.50;;;13.19;100.00
24230;BME280;12362;50.004;8.006;2023-08-08T00:29:25;100626.91;;;13.14;100.00
24230;BME280;12362;50.004;8.006;2023-08-08T00:31:51;100630.28;;;13.16;100.00
24230;BME280;12362;50.004;8.006;2023-08-08T00:34:17;100624.97;;;13.18;100.00
24230;BME280;12362;50.004;8.006;2023-08-08T00:36:42;100619.22;;;13.27;100.00
24230;BME280;12362;50.004;8.006;2023-08-08T00:39:07;100619.31;;;13.25;100.00
24230;BME280;12362;50.004;8.006;2023-08-08T00:41:33;100619.00;;;13.31;100.00
24230;BME280;12362;50.004;8.006;2023-08-08T00:43:59;100611.41;;;13.27;100.00
24230;BME280;12362;50.004;8.006;2023-08-08T00:46:24;100616.72;;;13.25;100.00
24230;BME280;12362;50.004;8.006;2023-08-08T00:48:53;100615.91;;;13.25;100.00
24230;BME280;12362;50.004;8.006;2023-08-08T00:51:20;100615.69;;;13.28;100.00
24230;BME280;12362;50.004;8.006;2023-08-08T00:53:47;100617.22;;;13.32;100.00
24230;BME280;12362;50.004;8.006;2023-08-08T00:56:13;100608.47;;;13.33;100.00
24230;BME280;12362;50.004;8.006;2023-08-08T00:58:40;100604.78;;;13.37;100.00
24230;BME280;12362;50.004;8.006;2023-08-08T01:01:06;100606.47;;;13.38;100.00
24230;BME280;12362;50.004;8.006;2023-08-08T01:03:32;100595.69;;;13.28;100.00
24230;BME280;12362;50.004;8.006;2023-08-08T01:06:02;100598.06;;;13.17;100.00
24230;BME280;12362;50.004;8.006;2023-08-08T01:08:36;100598.50;;;13.10;100.00
24230;BME280;12362;50.004;8.006;2023-08-08T01:11:05;100615.88;;;13.09;100.00
24230;BME280;12362;50.004;8.006;2023-08-08T01:13:31;100609.69;;;13.12;100.00
24230;BME280;12362;50.004;8.006;2023-08-08T01:15:57;100608.66;;;13.14;100.00
24230;BME280;12362;50.004;8.006;2023-08-08T01:18:24;100604.88;;;13.04;100.00
24230;BME280;12362;50.004;8.006;2023-08-08T01:20:50;100618.34;;;12.97;100.00
24230;BME280;12362;50.004;8.006;2023-08-08T01:23:28;100618.22;;;12.83;100.00
24230;BME280;12362;50.004;8.006;2023-08-08T01:25:56;100619.47;;;12.76;100.00
24230;BME280;12362;50.004;8.006;2023-08-08T01:28:25;100614.16;;;12.77;100.00
24230;BME280;12362;50.004;8.006;2023-08-08T01:30:51;100613.75;;;12.69;100.00
24230;BME280;12362;50.004;8.006;2023-08-08T01:33:17;100616.25;;;12.56;100.00
24230;BME280;12362;50.004;8.006;2023-08-08T01:35:50;100613.63;;;12.40;100.00
24230;BME280;12362;50.004;8.006;2023-08-08T01:38:40;100604.28;;;12.36;100.00
24230;BME280;12362;50.004;8.006;2023-08-08T01:41:07;100606.31;;;12.31;100.00
24230;BME280;12362;50.004;8.006;2023-08-08T01:43:34;100597.38;;;12.35;100.00
24230;BME280;12362;50.004;8.006;2023-08-08T01:46:00;100606.06;;;12.36;100.00
24230;BME280;12362;50.004;8.006;2023-08-08T01:48:28;100612.50;;;12.29;100.00
24230;BME280;12362;50.004;8.006;2023-08-08T01:50:53;100602.94;;;12.12;100.00
24230;BME280;12362;50.004;8.006;2023-08-08T01:53:19;100610.22;;;12.06;100.00
24230;BME280;12362;50.004;8.006;2023-08-08T01:55:44;100611.53;;;11.97;100.00
24230;BME280;12362;50.004;8.006;2023-08-08T01:58:10;100612.63;;;11.93;100.00
24230;BME280;12362;50.004;8.006;2023-08-08T02:00:36;100616.34;;;12.05;100.00
24230;BME280;12362;50.004;8.006;2023-08-08T02:03:02;100604.41;;;12.18;100.00
24230;BME280;12362;50.004;8.006;2023-08-08T02:05:28;100601.41;;;12.25;100.00
24230;BME280;12362;50.004;8.006;2023-08-08T02:07:54;100600.69;;;12.06;100.00
24230;BME280;12362;50.004;8.006;2023-08-08T02:10:20;100601.53;;;11.73;100.00
24230;BME280;12362;50.004;8.006;2023-08-08T02:12:45;100604.84;;;11.60;100.00
24230;BME280;12362;50.004;8.006;2023-08-08T02:15:11;100596.41;;;11.55;100.00
24230;BME280;12362;50.004;8.006;2023-08-08T02:17:38;100595.13;;;11.63;100.00
24230;BME280;12362;50.004;8.006;2023-08-08T02:20:05;100601.00;;;11.67;100.00
24230;BME280;12362;50.004;8.006;2023-08-08T02:22:31;100593.09;;;11.51;100.00
24230;BME280;12362;50.004;8.006;2023-08-08T02:24:57;100597.28;;;11.37;100.00
24230;BME280;12362;50.004;8.006;2023-08-08T02:27:22;100597.22;;;11.38;100.00
24230;BME280;12362;50.004;8.006;2023-08-08T02:29:48;100596.84;;;11.46;100.00
24230;BME280;12362;50.004;8.006;2023-08-08T02:32:14;100594.88;;;11.32;100.00
24230;BME280;12362;50.004;8.006;2023-08-08T02:34:39;100598.94;;;11.21;100.00
24230;BME280;12362;50.004;8.006;2023-08-08T02:37:05;100596.56;;;11.16;100.00
24230;BME280;12362;50.004;8.006;2023-08-08T02:39:31;100603.66;;;11.13;100.00
24230;BME280;12362;50.004;8.006;2023-08-08T02:41:57;100598.56;;;10.93;100.00
24230;BME280;12362;50.004;8.006;2023-08-08T02:44:23;100598.91;;;10.85;100.00
24230;BME280;12362;50.004;8.006;2023-08-08T02:46:49;100597.03;;;10.89;100.00
24230;BME280;12362;50.004;8.006;2023-08-08T02:49:14;100602.63;;;10.98;100.00
24230;BME280;12362;50.004;8.006;2023-08-08T02:51:40;100602.41;;;11.03;100.00
24230;BME280;12362;50.004;8.006;2023-08-08T02:54:06;100599.81;;;10.84;100.00
24230;BME280;12362;50.004;8.006;2023-08-08T02:56:33;100599.97;;;10.82;100.00
24230;BME280;12362;50.004;8.006;2023-08-08T02:58:59;100610.03;;;10.89;100.00
24230;BME280;12362;50.004;8.006;2023-08-08T03:01:24;100608.16;;;10.91;100.00
24230;BME280;12362;50.004;8.006;2023-08-08T03:03:50;100605.72;;;10.88;100.00
24230;BME280;12362;50.004;8.006;2023-08-08T03:06:18;100598.28;;;10.99;100.00
24230;BME280;12362;50.004;8.006;2023-08-08T03:08:43;100592.78;;;11.05;100.00
24230;BME280;12362;50.004;8.006;2023-08-08T03:11:09;100591.75;;;10.90;100.00
24230;BME280;12362;50.004;8.006;2023-08-08T03:13:34;100587.25;;;10.76;100.00
24230;BME280;12362;50.004;8.006;2023-08-08T03:16:00;100593.59;;;10.70;100.00
24230;BME280;12362;50.004;8.006;2023-08-08T03:18:26;100585.00;;;10.68;100.00
24230;BME280;12362;50.004;8.006;2023-08-08T03:20:52;100592.47;;;10.76;100.00
24230;BME280;12362;50.004;8.006;2023-08-08T03:23:18;100585.78;;;10.88;100.00
24230;BME280;12362;50.004;8.006;2023-08-08T03:25:44;100587.25;;;10.94;100.00
24230;BME280;12362;50.004;8.006;2023-08-08T03:28:09;100596.47;;;11.01;100.00
24230;BME280;12362;50.004;8.006;2023-08-08T03:30:38;100588.28;;;11.08;100.00
24230;BME280;12362;50.004;8.006;2023-08-08T03:33:06;100595.25;;;11.08;100.00
24230;BME280;12362;50.004;8.006;2023-08-08T03:35:32;100595.69;;;10.99;100.00
24230;BME280;12362;50.004;8.006;2023-08-08T03:37:58;100603.88;;;10.90;100.00
24230;BME280;12362;50.004;8.006;2023-08-08T03:40:23;100598.06;;;10.85;100.00
24230;BME280;12362;50.004;8.006;2023-08-08T03:42:49;100597.72;;;10.92;100.00
24230;BME280;12362;50.004;8.006;2023-08-08T03:45:14;100600.34;;;11.09;100.00
24230;BME280;12362;50.004;8.006;2023-08-08T03:47:40;100597.53;;;11.14;100.00
24230;BME280;12362;50.004;8.006;2023-08-08T03:50:09;100603.84;;;11.08;100.00
24230;BME280;12362;50.004;8.006;2023-08-08T03:52:36;100600.94;;;10.97;100.00
24230;BME280;12362;50.004;8.006;2023-08-08T03:55:03;100599.97;;;10.82;100.00
24230;BME280;12362;50.004;8.006;2023-08-08T03:57:29;100597.53;;;10.60;100.00
24230;BME280;12362;50.004;8.006;2023-08-08T03:59:55;100601.56;;;10.47;100.00
24230;BME280;12362;50.004;8.006;2023-08-08T04:02:21;100601.44;;;10.32;100.00
24230;BME280;12362;50.004;8.006;2023-08-08T04:04:46;100600.97;;;10.22;100.00
24230;BME280;12362;50.004;8.006;2023-08-08T04:07:12;100611.81;;;10.32;100.00
24230;BME280;12362;50.004;8.006;2023-08-08T04:09:37;100613.09;;;10.42;100.00
24230;BME280;12362;50.004;8.006;2023-08-08T04:12:03;100604.19;;;10.47;100.00
24230;BME280;12362;50.004;8.006;2023-08-08T04:14:29;100606.06;;;10.44;100.00
24230;BME280;12362;50.004;8.006;2023-08-08T04:16:54;100606.06;;;10.44;100.00
24230;BME280;12362;50.004;8.006;2023-08-08T04:19:20;100598.91;;;10.49;100.00
24230;BME280;12362;50.004;8.006;2023-08-08T04:21:45;100603.06;;;10.53;100.00
24230;BME280;12362;50.004;8.006;2023-08-08T04:24:10;100606.09;;;10.62;100.00
24230;BME280;12362;50.004;8.006;2023-08-08T04:26:37;100603.28;;;10.67;100.00
24230;BME280;12362;50.004;8.006;2023-08-08T04:29:03;100605.38;;;10.77;100.00
24230;BME280;12362;50.004;8.006;2023-08-08T04:31:29;100597.44;;;10.80;100.00
24230;BME280;12362;50.004;8.006;2023-08-08T04:33:54;100598.72;;;10.72;100.00
24230;BME280;12362;50.004;8.006;2023-08-08T04:36:28;100603.72;;;10.76;100.00
24230;BME280;12362;50.004;8.006;2023-08-08T04:38:54;100605.78;;;10.86;100.00
24230;BME280;12362;50.004;8.006;2023-08-08T04:41:20;100601.44;;;10.87;100.00
24230;BME280;12362;50.004;8.006;2023-08-08T04:43:46;100609.28;;;10.85;100.00
24230;BME280;12362;50.004;8.006;2023-08-08T04:46:11;100608.13;;;10.92;100.00
24230;BME280;12362;50.004;8.006;2023-08-08T04:48:37;100610.53;;;10.95;100.00
24230;BME280;12362;50.004;8.006;2023-08-08T04:51:06;100596.19;;;11.24;100.00
24230;BME280;12362;50.004;8.006;2023-08-08T04:53:32;100592.84;;;11.39;100.00
24230;BME280;12362;50.004;8.006;2023-08-08T04:55:57;100592.03;;;11.55;100.00
24230;BME280;12362;50.004;8.006;2023-08-08T04:58:23;100589.22;;;11.60;100.00
24230;BME280;12362;50.004;8.006;2023-08-08T05:00:48;100590.47;;;11.70;100.00
24230;BME280;12362;50.004;8.006;2023-08-08T05:03:16;100582.81;;;11.83;100.00
24230;BME280;12362;50.004;8.006;2023-08-08T05:05:42;100587.53;;;11.92;100.00
24230;BME280;12362;50.004;8.006;2023-08-08T05:08:10;100587.81;;;12.03;100.00
24230;BME280;12362;50.004;8.006;2023-08-08T05:10:36;100584.81;;;12.11;100.00
24230;BME280;12362;50.004;8.006;2023-08-08T05:13:01;100584.34;;;12.20;100.00
24230;BME280;12362;50.004;8.006;2023-08-08T05:15:27;100576.91;;;12.29;100.00
24230;BME280;12362;50.004;8.006;2023-08-08T05:17:52;100577.56;;;12.33;100.00
24230;BME280;12362;50.004;8.006;2023-08-08T05:20:23;100575.06;;;12.47;100.00
24230;BME280;12362;50.004;8.006;2023-08-08T05:22:48;100579.19;;;12.51;100.00
24230;BME280;12362;50.004;8.006;2023-08-08T05:25:14;100570.38;;;12.53;100.00
24230;BME280;12362;50.004;8.006;2023-08-08T05:27:39;100575.69;;;12.67;100.00
24230;BME280;12362;50.004;8.006;2023-08-08T05:30:06;100567.13;;;12.65;100.00
24230;BME280;12362;50.004;8.006;2023-08-08T05:32:31;100570.03;;;12.74;100.00
24230;BME280;12362;50.004;8.006;2023-08-08T05:34:57;100561.75;;;12.83;100.00
24230;BME280;12362;50.004;8.006;2023-08-08T05:37:23;100564.09;;;12.88;100.00
24230;BME280;12362;50.004;8.006;2023-08-08T05:39:49;100565.28;;;12.98;100.00
24230;BME280;12362;50.004;8.006;2023-08-08T05:42:14;100566.44;;;13.08;100.00
24230;BME280;12362;50.004;8.006;2023-08-08T05:44:40;100565.00;;;13.18;100.00
24230;BME280;12362;50.004;8.006;2023-08-08T05:47:07;100564.56;;;13.25;100.00
24230;BME280;12362;50.004;8.006;2023-08-08T05:49:33;100567.50;;;13.35;100.00
24230;BME280;12362;50.004;8.006;2023-08-08T05:51:59;100567.63;;;13.47;100.00
24230;BME280;12362;50.004;8.006;2023-08-08T05:54:24;100576.59;;;13.57;100.00
24230;BME280;12362;50.004;8.006;2023-08-08T05:56:49;100565.91;;;13.62;100.00
24230;BME280;12362;50.004;8.006;2023-08-08T05:59:15;100567.53;;;13.78;100.00
24230;BME280;12362;50.004;8.006;2023-08-08T06:01:40;100567.53;;;13.92;100.00
24230;BME280;12362;50.004;8.006;2023-08-08T06:04:06;100555.44;;;14.05;100.00
24230;BME280;12362;50.004;8.006;2023-08-08T06:06:31;100567.41;;;14.23;100.00
24230;BME280;12362;50.004;8.006;2023-08-08T06:08:57;100563.06;;;14.77;100.00
24230;BME280;12362;50.004;8.006;2023-08-08T06:11:22;100566.34;;;15.07;100.00
24230;BME280;12362;50.004;8.006;2023-08-08T06:13:48;100556.34;;;15.40;100.00
24230;BME280;12362;50.004;8.006;2023-08-08T06:16:14;100557.44;;;15.62;100.00
24230;BME280;12362;50.004;8.006;2023-08-08T06:18:41;100547.59;;;15.78;100.00
24230;BME280;12362;50.004;8.006;2023-08-08T06:21:06;100542.47;;;16.14;100.00
24230;BME280;12362;50.004;8.006;2023-08-08T06:23:32;100539.22;;;16.23;100.00
24230;BME280;12362;50.004;8.006;2023-08-08T06:25:57;100541.13;;;16.46;100.00
24230;BME280;12362;50.004;8.006;2023-08-08T06:28:23;100527.44;;;16.66;100.00
24230;BME280;12362;50.004;8.006;2023-08-08T06:30:48;100525.47;;;16.93;100.00
24230;BME280;12362;50.004;8.006;2023-08-08T06:33:14;100535.16;;;17.03;100.00
24230;BME280;12362;50.004;8.006;2023-08-08T06:35:39;100524.38;;;17.42;100.00
24230;BME280;12362;50.004;8.006;2023-08-08T06:38:05;100530.59;;;16.82;100.00
24230;BME280;12362;50.004;8.006;2023-08-08T06:40:30;100531.28;;;17.20;100.00
24230;BME280;12362;50.004;8.006;2023-08-08T06:42:56;100515.06;;;17.83;100.00
24230;BME280;12362;50.004;8.006;2023-08-08T06:45:21;100516.72;;;17.84;100.00
24230;BME280;12362;50.004;8.006;2023-08-08T06:47:47;100514.47;;;17.91;100.00
24230;BME280;12362;50.004;8.006;2023-08-08T06:50:13;100515.81;;;18.51;100.00
24230;BME280;12362;50.004;8.006;2023-08-08T06:52:38;100512.56;;;17.93;100.00
24230;BME280;12362;50.004;8.006;2023-08-08T06:55:04;100517.88;;;17.58;100.00
24230;BME280;12362;50.004;8.006;2023-08-08T06:57:32;100507.41;;;18.02;100.00
24230;BME280;12362;50.004;8.006;2023-08-08T06:59:58;100509.25;;;18.34;100.00
24230;BME280;12362;50.004;8.006;2023-08-08T07:02:24;100507.16;;;18.82;100.00
24230;BME280;12362;50.004;8.006;2023-08-08T07:04:49;100504.13;;;18.97;100.00
24230;BME280;12362;50.004;8.006;2023-08-08T07:07:15;100500.16;;;19.34;100.00
24230;BME280;12362;50.004;8.006;2023-08-08T07:09:40;100501.00;;;19.55;100.00
24230;BME280;12362;50.004;8.006;2023-08-08T07:12:07;100496.03;;;20.32;100.00
24230;BME280;12362;50.004;8.006;2023-08-08T07:14:32;100503.91;;;19.52;100.00
24230;BME280;12362;50.004;8.006;2023-08-08T07:16:58;100496.38;;;19.68;100.00
24230;BME280;12362;50.004;8.006;2023-08-08T07:19:24;100492.88;;;20.08;100.00
24230;BME280;12362;50.004;8.006;2023-08-08T07:21:49;100492.28;;;19.34;100.00
24230;BME280;12362;50.004;8.006;2023-08-08T07:24:16;100488.66;;;19.96;100.00
24230;BME280;12362;50.004;8.006;2023-08-08T07:26:41;100485.66;;;19.60;100.00
24230;BME280;12362;50.004;8.006;2023-08-08T07:29:07;100484.47;;;19.32;100.00
24230;BME280;12362;50.004;8.006;2023-08-08T07:31:32;100485.91;;;18.63;100.00
24230;BME280;12362;50.004;8.006;2023-08-08T07:33:58;100491.59;;;18.79;100.00
24230;BME280;12362;50.004;8.006;2023-08-08T07:36:24;100480.03;;;19.13;100.00
24230;BME280;12362;50.004;8.006;2023-08-08T07:38:49;100488.78;;;19.02;100.00
24230;BME280;12362;50.004;8.006;2023-08-08T07:41:15;100482.91;;;18.67;100.00
24230;BME280;12362;50.004;8.006;2023-08-08T07:43:40;100486.19;;;18.91;100.00
24230;BME280;12362;50.004;8.006;2023-08-08T07:46:06;100484.16;;;19.46;100.00
24230;BME280;12362;50.004;8.006;2023-08-08T07:48:31;100472.44;;;20.01;100.00
24230;BME280;12362;50.004;8.006;2023-08-08T07:50:57;100462.44;;;20.92;100.00
24230;BME280;12362;50.004;8.006;2023-08-08T07:53:22;100460.38;;;21.05;100.00
24230;BME280;12362;50.004;8.006;2023-08-08T07:55:47;100456.06;;;20.85;100.00
24230;BME280;12362;50.004;8.006;2023-08-08T07:58:13;100459.13;;;20.81;93.21
24230;BME280;12362;50.004;8.006;2023-08-08T08:00:39;100450.56;;;20.58;96.69
24230;BME280;12362;50.004;8.006;2023-08-08T08:03:04;100446.56;;;20.73;93.04
24230;BME280;12362;50.004;8.006;2023-08-08T08:05:30;100450.22;;;20.33;90.19
24230;BME280;12362;50.004;8.006;2023-08-08T08:07:55;100448.72;;;20.01;94.15
24230;BME280;12362;50.004;8.006;2023-08-08T08:10:21;100445.03;;;20.13;96.27
24230;BME280;12362;50.004;8.006;2023-08-08T08:12:46;100455.44;;;20.14;99.05
24230;BME280;12362;50.004;8.006;2023-08-08T08:15:12;100456.31;;;20.82;100.00
24230;BME280;12362;50.004;8.006;2023-08-08T08:17:38;100451.19;;;21.09;93.75
24230;BME280;12362;50.004;8.006;2023-08-08T08:20:10;100449.94;;;21.22;92.32
24230;BME280;12362;50.004;8.006;2023-08-08T08:22:37;100445.38;;;21.06;89.05
24230;BME280;12362;50.004;8.006;2023-08-08T08:25:04;100444.66;;;21.04;94.18
24230;BME280;12362;50.004;8.006;2023-08-08T08:27:30;100446.47;;;21.22;90.42
24230;BME280;12362;50.004;8.006;2023-08-08T08:29:56;100450.72;;;20.66;93.42
24230;BME280;12362;50.004;8.006;2023-08-08T08:32:21;100444.47;;;20.77;100.00
24230;BME280;12362;50.004;8.006;2023-08-08T08:34:47;100438.25;;;20.97;100.00
24230;BME280;12362;50.004;8.006;2023-08-08T08:37:12;100448.75;;;20.49;100.00
24230;BME280;12362;50.004;8.006;2023-08-08T08:39:39;100454.03;;;20.59;100.00
24230;BME280;12362;50.004;8.006;2023-08-08T08:42:05;100445.47;;;20.27;100.00
24230;BME280;12362;50.004;8.006;2023-08-08T08:44:32;100458.34;;;20.60;100.00
24230;BME280;12362;50.004;8.006;2023-08-08T08:47:07;100446.34;;;21.05;100.00
24230;BME280;12362;50.004;8.006;2023-08-08T08:49:38;100443.69;;;21.05;100.00
24230;BME280;12362;50.004;8.006;2023-08-08T08:52:04;100446.84;;;21.27;100.00
24230;BME280;12362;50.004;8.006;2023-08-08T08:54:32;100443.81;;;21.12;100.00
24230;BME280;12362;50.004;8.006;2023-08-08T08:56:58;100450.91;;;21.40;100.00
24230;BME280;12362;50.004;8.006;2023-08-08T08:59:24;100450.59;;;21.53;100.00
24230;BME280;12362;50.004;8.006;2023-08-08T09:01:51;100454.47;;;21.77;96.39
24230;BME280;12362;50.004;8.006;2023-08-08T09:04:19;100454.66;;;21.28;100.00
24230;BME280;12362;50.004;8.006;2023-08-08T09:06:46;100450.16;;;22.03;100.00
24230;BME280;12362;50.004;8.006;2023-08-08T09:09:12;100451.69;;;21.69;96.54
24230;BME280;12362;50.004;8.006;2023-08-08T09:11:39;100453.50;;;21.50;100.00
24230;BME280;12362;50.004;8.006;2023-08-08T09:14:15;100443.16;;;21.85;100.00
24230;BME280;12362;50.004;8.006;2023-08-08T09:16:42;100441.06;;;22.15;96.61
24230;BME280;12362;50.004;8.006;2023-08-08T09:19:08;100432.22;;;22.78;91.09
24230;BME280;12362;50.004;8.006;2023-08-08T09:21:33;100435.75;;;22.24;91.83
24230;BME280;12362;50.004;8.006;2023-08-08T09:23:59;100434.16;;;21.68;100.00
24230;BME280;12362;50.004;8.006;2023-08-08T09:26:24;100440.03;;;21.62;98.50
24230;BME280;12362;50.004;8.006;2023-08-08T09:28:50;100438.88;;;21.74;100.00
24230;BME280;12362;50.004;8.006;2023-08-08T09:31:16;100441.09;;;21.79;97.48
24230;BME280;12362;50.004;8.006;2023-08-08T09:33:42;100440.91;;;21.06;100.00
24230;BME280;12362;50.004;8.006;2023-08-08T09:36:16;100435.06;;;21.12;100.00
24230;BME280;12362;50.004;8.006;2023-08-08T09:38:42;100427.94;;;21.96;98.12
24230;BME280;12362;50.004;8.006;2023-08-08T09:41:08;100417.47;;;22.75;92.27
24230;BME280;12362;50.004;8.006;2023-08-08T09:43:33;100425.00;;;22.53;89.12
24230;BME280;12362;50.004;8.006;2023-08-08T09:45:59;100411.72;;;22.80;91.36
24230;BME280;12362;50.004;8.006;2023-08-08T09:48:32;100419.66;;;22.80;82.13
24230;BME280;12362;50.004;8.006;2023-08-08T09:50:58;100429.56;;;22.60;85.84
24230;BME280;12362;50.004;8.006;2023-08-08T09:53:26;100419.97;;;22.77;92.35
24230;BME280;12362;50.004;8.006;2023-08-08T09:55:54;100413.78;;;23.20;82.11
24230;BME280;12362;50.004;8.006;2023-08-08T09:58:20;100418.00;;;23.13;78.58
24230;BME280;12362;50.004;8.006;2023-08-08T10:00:49;100425.63;;;22.10;83.32
24230;BME280;12362;50.004;8.006;2023-08-08T10:03:14;100435.75;;;22.24;90.55
24230;BME280;12362;50.004;8.006;2023-08-08T10:05:41;100420.38;;;23.16;77.95
24230;BME280;12362;50.004;8.006;2023-08-08T10:08:06;100428.13;;;22.83;83.32
24230;BME280;12362;50.004;8.006;2023-08-08T10:10:32;100423.59;;;22.93;77.58
24230;BME280;12362;50.004;8.006;2023-08-08T10:12:58;100421.31;;;22.63;82.25
24230;BME280;12362;50.004;8.006;2023-08-08T10:15:27;100431.31;;;21.89;83.69
24230;BME280;12362;50.004;8.006;2023-08-08T10:17:55;100423.34;;;21.52;87.51
24230;BME280;12362;50.004;8.006;2023-08-08T10:20:21;100422.34;;;22.35;79.37
24230;BME280;12362;50.004;8.006;2023-08-08T10:22:47;100418.50;;;22.47;80.44
24230;BME280;12362;50.004;8.006;2023-08-08T10:25:23;100410.91;;;22.96;72.46
24230;BME280;12362;50.004;8.006;2023-08-08T10:27:48;100413.28;;;22.38;83.23
24230;BME280;12362;50.004;8.006;2023-08-08T10:30:14;100417.63;;;22.29;81.15
24230;BME280;12362;50.004;8.006;2023-08-08T10:32:43;100418.38;;;22.49;83.92
24230;BME280;12362;50.004;8.006;2023-08-08T10:35:10;100419.38;;;22.65;85.63
24230;BME280;12362;50.004;8.006;2023-08-08T10:37:36;100414.88;;;23.00;79.44
24230;BME280;12362;50.004;8.006;2023-08-08T10:40:04;100417.84;;;22.97;82.36
24230;BME280;12362;50.004;8.006;2023-08-08T10:42:41;100420.34;;;22.64;80.98
24230;BME280;12362;50.004;8.006;2023-08-08T10:45:10;100422.25;;;22.18;84.60
24230;BME280;12362;50.004;8.006;2023-08-08T10:47:37;100428.38;;;21.36;82.36
24230;BME280;12362;50.004;8.006;2023-08-08T10:52:32;100436.97;;;21.57;82.20
24230;BME280;12362;50.004;8.006;2023-08-08T10:55:01;100426.16;;;21.97;81.61
24230;BME280;12362;50.004;8.006;2023-08-08T10:57:28;100419.44;;;22.91;80.83
24230;BME280;12362;50.004;8.006;2023-08-08T10:59:53;100423.69;;;22.84;75.99
24230;BME280;12362;50.004;8.006;2023-08-08T11:02:20;100423.13;;;22.80;72.31
24230;BME280;12362;50.004;8.006;2023-08-08T11:04:46;100433.78;;;22.36;80.35
24230;BME280;12362;50.004;8.006;2023-08-08T11:07:14;100426.72;;;22.17;80.33
24230;BME280;12362;50.004;8.006;2023-08-08T11:09:49;100428.66;;;22.25;81.13
24230;BME280;12362;50.004;8.006;2023-08-08T11:12:15;100424.41;;;22.41;80.05
24230;BME280;12362;50.004;8.006;2023-08-08T11:14:41;100418.91;;;22.52;76.99
24230;BME280;12362;50.004;8.006;2023-08-08T11:17:07;100412.03;;;22.77;67.11
24230;BME280;12362;50.004;8.006;2023-08-08T11:19:38;100417.09;;;22.26;73.73
24230;BME280;12362;50.004;8.006;2023-08-08T11:22:09;100413.91;;;22.67;71.70
24230;BME280;12362;50.004;8.006;2023-08-08T11:24:35;100410.06;;;22.61;70.08
24230;BME280;12362;50.004;8.006;2023-08-08T11:27:00;100400.66;;;22.67;70.33
24230;BME280;12362;50.004;8.006;2023-08-08T11:29:26;100393.41;;;23.21;66.99
24230;BME280;12362;50.004;8.006;2023-08-08T11:31:56;100396.97;;;22.94;63.25
24230;BME280;12362;50.004;8.006;2023-08-08T11:34:22;100408.56;;;22.32;69.01
24230;BME280;12362;50.004;8.006;2023-08-08T11:36:48;100408.03;;;22.55;71.58
24230;BME280;12362;50.004;8.006;2023-08-08T11:39:14;100416.25;;;23.22;68.80
24230;BME280;12362;50.004;8.006;2023-08-08T11:41:40;100412.75;;;23.04;68.24
24230;BME280;12362;50.004;8.006;2023-08-08T11:44:07;100410.88;;;23.31;66.50
24230;BME280;12362;50.004;8.006;2023-08-08T11:46:33;100400.16;;;23.66;62.90
24230;BME280;12362;50.004;8.006;2023-08-08T11:49:06;100408.09;;;23.84;58.20
24230;BME280;12362;50.004;8.006;2023-08-08T11:51:35;100395.81;;;24.16;56.79
24230;BME280;12362;50.004;8.006;2023-08-08T11:54:02;100395.84;;;23.65;56.71
24230;BME280;12362;50.004;8.006;2023-08-08T11:56:28;100405.59;;;23.31;62.68
24230;BME280;12362;50.004;8.006;2023-08-08T11:58:55;100393.41;;;23.46;54.82
24230;BME280;12362;50.004;8.006;2023-08-08T12:01:25;100389.41;;;23.42;56.92
24230;BME280;12362;50.004;8.006;2023-08-08T12:03:51;100388.47;;;23.26;57.89
24230;BME280;12362;50.004;8.006;2023-08-08T12:06:18;100380.59;;;24.34;57.60
24230;BME280;12362;50.004;8.006;2023-08-08T12:08:45;100389.22;;;23.36;55.99
24230;BME280;12362;50.004;8.006;2023-08-08T12:11:11;100385.50;;;24.13;54.43
24230;BME280;12362;50.004;8.006;2023-08-08T12:13:39;100384.56;;;23.88;52.29
24230;BME280;12362;50.004;8.006;2023-08-08T12:16:10;100395.63;;;23.08;54.26
24230;BME280;12362;50.004;8.006;2023-08-08T12:18:36;100400.06;;;23.76;56.04
24230;BME280;12362;50.004;8.006;2023-08-08T12:21:07;100386.78;;;24.50;54.09
24230;BME280;12362;50.004;8.006;2023-08-08T12:23:33;100387.78;;;24.49;52.30
24230;BME280;12362;50.004;8.006;2023-08-08T12:25:59;100387.28;;;24.04;52.00
24230;BME280;12362;50.004;8.006;2023-08-08T12:28:25;100392.41;;;23.98;52.77
24230;BME280;12362;50.004;8.006;2023-08-08T12:30:51;100386.00;;;23.50;54.01
24230;BME280;12362;50.004;8.006;2023-08-08T12:33:17;100387.25;;;23.71;54.70
24230;BME280;12362;50.004;8.006;2023-08-08T12:35:42;100386.25;;;23.39;55.09
24230;BME280;12362;50.004;8.006;2023-08-08T12:38:08;100384.25;;;23.15;63.21
24230;BME280;12362;50.004;8.006;2023-08-08T12:40:33;100396.78;;;23.31;64.13